createdAt,value
2018-01-12T00:00:17.826Z,102199
2018-01-12T00:02:47.658Z,102208
2018-01-12T00:07:50.450Z,102210
2018-01-12T00:10:18.837Z,102214
2018-01-12T00:12:48.068Z,102224
2018-01-12T00:15:16.459Z,102231
2018-01-12T00:17:51.192Z,102225
2018-01-12T00:20:24.262Z,102220
2018-01-12T00:22:52.869Z,102225
2018-01-12T00:25:21.234Z,102234
2018-01-12T00:27:49.538Z,102231
2018-01-12T00:30:19.349Z,102233
2018-01-12T00:32:47.684Z,102238
2018-01-12T00:35:16.031Z,102247
2018-01-12T00:37:44.364Z,102237
2018-01-12T00:40:12.695Z,102246
2018-01-12T00:42:41.062Z,102245
2018-01-12T00:45:09.413Z,102247
2018-01-12T00:47:38.557Z,102246
2018-01-12T00:50:06.845Z,102244
2018-01-12T00:52:37.014Z,102241
2018-01-12T00:55:07.093Z,102252
2018-01-12T01:00:10.941Z,102254
2018-01-12T01:02:39.257Z,102250
2018-01-12T01:05:22.143Z,102255
2018-01-12T01:07:50.472Z,102252
2018-01-12T01:10:19.073Z,102255
2018-01-12T01:12:47.424Z,102254
2018-01-12T01:15:15.777Z,102255
2018-01-12T01:17:44.180Z,102259
2018-01-12T01:20:12.503Z,102261
2018-01-12T01:22:43.137Z,102265
2018-01-12T01:25:11.545Z,102262
2018-01-12T01:27:47.272Z,102262
2018-01-12T01:30:15.598Z,102273
2018-01-12T01:32:43.869Z,102272
2018-01-12T01:35:23.344Z,102273
2018-01-12T01:37:51.703Z,102269
2018-01-12T01:40:20.067Z,102279
2018-01-12T01:42:48.420Z,102281
2018-01-12T01:45:16.738Z,102277
2018-01-12T01:47:46.810Z,102285
2018-01-12T01:52:54.282Z,102290
2018-01-12T01:55:22.705Z,102296
2018-01-12T01:57:50.996Z,102302
2018-01-12T02:00:19.532Z,102299
2018-01-12T02:02:48.620Z,102306
2018-01-12T02:05:16.831Z,102307
2018-01-12T02:07:45.152Z,102308
2018-01-12T02:10:13.345Z,102322
2018-01-12T02:12:41.592Z,102309
2018-01-12T02:15:09.806Z,102324
2018-01-12T02:17:38.106Z,102323
2018-01-12T02:20:07.106Z,102323
2018-01-12T02:22:35.340Z,102325
2018-01-12T02:25:03.596Z,102331
2018-01-12T02:27:31.815Z,102329
2018-01-12T02:30:01.234Z,102333
2018-01-12T02:32:29.543Z,102334
2018-01-12T02:34:57.769Z,102339
2018-01-12T02:37:27.712Z,102345
2018-01-12T02:39:55.940Z,102340
2018-01-12T02:42:24.187Z,102338
2018-01-12T02:44:52.400Z,102349
2018-01-12T02:47:21.413Z,102352
2018-01-12T02:49:49.647Z,102349
2018-01-12T02:52:17.857Z,102355
2018-01-12T02:54:46.082Z,102356
2018-01-12T02:57:14.330Z,102366
2018-01-12T02:59:42.575Z,102364
2018-01-12T03:02:11.607Z,102368
2018-01-12T03:04:39.848Z,102364
2018-01-12T03:07:08.826Z,102365
2018-01-12T03:09:37.827Z,102371
2018-01-12T03:12:06.798Z,102375
2018-01-12T03:14:35.007Z,102373
2018-01-12T03:17:03.251Z,102381
2018-01-12T03:19:31.471Z,102381
2018-01-12T03:21:59.663Z,102376
2018-01-12T03:24:27.882Z,102378
2018-01-12T03:26:56.878Z,102377
2018-01-12T03:29:25.918Z,102378
2018-01-12T03:31:54.212Z,102374
2018-01-12T03:34:22.569Z,102376
2018-01-12T03:36:50.803Z,102378
2018-01-12T03:39:19.814Z,102385
2018-01-12T03:41:48.024Z,102375
2018-01-12T03:44:16.283Z,102383
2018-01-12T03:46:44.593Z,102381
2018-01-12T03:49:12.792Z,102378
2018-01-12T03:51:41.045Z,102370
2018-01-12T03:54:09.532Z,102373
2018-01-12T03:56:37.790Z,102382
2018-01-12T03:59:05.983Z,102392
2018-01-12T04:01:34.221Z,102382
2018-01-12T04:04:04.023Z,102392
2018-01-12T04:06:32.210Z,102392
2018-01-12T04:09:00.427Z,102391
2018-01-12T04:11:28.611Z,102392
2018-01-12T04:13:57.612Z,102394
2018-01-12T04:16:26.586Z,102393
2018-01-12T04:18:54.794Z,102392
2018-01-12T04:21:23.134Z,102396
2018-01-12T04:23:51.367Z,102395
2018-01-12T04:26:19.574Z,102400
2018-01-12T04:28:47.841Z,102401
2018-01-12T04:31:16.052Z,102404
2018-01-12T04:33:45.045Z,102404
2018-01-12T04:36:13.994Z,102409
2018-01-12T04:38:42.204Z,102416
2018-01-12T04:41:11.161Z,102413
2018-01-12T04:43:39.478Z,102407
2018-01-12T04:46:08.484Z,102410
2018-01-12T04:48:36.737Z,102415
2018-01-12T04:51:05.713Z,102421
2018-01-12T04:53:33.890Z,102416
2018-01-12T04:56:02.114Z,102429
2018-01-12T04:58:30.314Z,102423
2018-01-12T05:00:58.522Z,102431
2018-01-12T05:03:27.480Z,102432
2018-01-12T05:05:55.683Z,102435
2018-01-12T05:08:24.701Z,102437
2018-01-12T05:10:52.954Z,102438
2018-01-12T05:13:21.955Z,102436
2018-01-12T05:15:50.939Z,102446
2018-01-12T05:18:19.941Z,102439
2018-01-12T05:20:48.998Z,102451
2018-01-12T05:23:17.267Z,102452
2018-01-12T05:25:45.458Z,102454
2018-01-12T05:28:13.676Z,102453
2018-01-12T05:30:41.868Z,102451
2018-01-12T05:33:10.080Z,102454
2018-01-12T05:35:38.321Z,102456
2018-01-12T05:38:06.631Z,102448
2018-01-12T05:40:34.954Z,102464
2018-01-12T05:43:03.158Z,102454
2018-01-12T05:45:31.479Z,102462
2018-01-12T05:47:59.731Z,102467
2018-01-12T05:50:27.956Z,102464
2018-01-12T05:52:56.138Z,102469
2018-01-12T05:55:25.505Z,102471
2018-01-12T05:57:53.725Z,102474
2018-01-12T06:00:22.755Z,102479
2018-01-12T06:03:08.753Z,102475
2018-01-12T06:09:04.883Z,102487
2018-01-12T06:11:33.132Z,102493
2018-01-12T06:14:01.504Z,102500
2018-01-12T06:16:29.697Z,102495
2018-01-12T06:18:57.901Z,102500
2018-01-12T06:21:26.099Z,102500
2018-01-12T06:23:54.666Z,102502
2018-01-12T06:26:23.017Z,102510
2018-01-12T06:28:51.210Z,102503
2018-01-12T06:31:20.130Z,102497
2018-01-12T06:33:48.764Z,102507
2018-01-12T06:36:17.007Z,102512
2018-01-12T06:38:45.250Z,102511
2018-01-12T06:41:14.240Z,102511
2018-01-12T06:43:43.348Z,102514
2018-01-12T06:46:11.595Z,102516
2018-01-12T06:48:39.891Z,102524
2018-01-12T06:51:08.121Z,102525
2018-01-12T06:53:36.327Z,102526
2018-01-12T06:56:05.277Z,102529
2018-01-12T06:58:33.539Z,102531
2018-01-12T07:01:01.739Z,102534
2018-01-12T07:03:29.954Z,102542
2018-01-12T07:05:58.195Z,102538
2018-01-12T07:08:26.384Z,102542
2018-01-12T07:10:55.418Z,102548
2018-01-12T07:13:24.534Z,102554
2018-01-12T07:15:52.783Z,102552
2018-01-12T07:18:21.045Z,102555
2018-01-12T07:21:07.025Z,102548
2018-01-12T07:23:48.774Z,102557
2018-01-12T07:26:17.310Z,102562
2018-01-12T07:28:45.546Z,102569
2018-01-12T07:31:14.546Z,102569
2018-01-12T07:33:42.850Z,102573
2018-01-12T07:36:11.074Z,102580
2018-01-12T07:38:39.301Z,102581
2018-01-12T07:41:07.519Z,102578
2018-01-12T07:43:35.795Z,102580
2018-01-12T07:46:03.998Z,102588
2018-01-12T07:48:32.989Z,102586
2018-01-12T07:51:01.989Z,102599
2018-01-12T07:53:30.215Z,102593
2018-01-12T07:55:58.444Z,102591
2018-01-12T07:58:27.415Z,102598
2018-01-12T08:01:01.274Z,102590
2018-01-12T08:03:30.593Z,102597
2018-01-12T08:05:59.764Z,102607
2018-01-12T08:08:28.111Z,102599
2018-01-12T08:10:57.093Z,102603
2018-01-12T08:13:26.093Z,102602
2018-01-12T08:15:55.060Z,102606
2018-01-12T08:18:23.365Z,102609
2018-01-12T08:20:52.320Z,102608
2018-01-12T08:23:20.565Z,102615
2018-01-12T08:25:48.821Z,102616
2018-01-12T08:28:17.134Z,102613
2018-01-12T08:30:45.417Z,102621
2018-01-12T08:33:13.669Z,102629
2018-01-12T08:35:41.926Z,102644
2018-01-12T08:38:10.126Z,102642
2018-01-12T08:40:38.387Z,102651
2018-01-12T08:43:07.355Z,102655
2018-01-12T08:45:35.666Z,102656
2018-01-12T08:48:03.955Z,102662
2018-01-12T08:50:32.198Z,102666
2018-01-12T08:53:00.414Z,102669
2018-01-12T08:55:28.646Z,102672
2018-01-12T08:57:56.826Z,102673
2018-01-12T09:00:26.691Z,102677
2018-01-12T09:02:55.750Z,102679
2018-01-12T09:05:24.045Z,102678
2018-01-12T09:07:52.285Z,102689
2018-01-12T09:10:21.079Z,102684
2018-01-12T09:12:49.350Z,102688
2018-01-12T09:15:23.098Z,102691
2018-01-12T09:17:51.353Z,102684
2018-01-12T09:20:19.567Z,102700
2018-01-12T09:22:48.752Z,102694
2018-01-12T09:25:25.679Z,102698
2018-01-12T09:27:54.598Z,102695
2018-01-12T09:30:22.868Z,102699
2018-01-12T09:32:51.884Z,102700
2018-01-12T09:35:21.614Z,102699
2018-01-12T09:41:02.891Z,102704
2018-01-12T09:43:31.088Z,102708
2018-01-12T09:45:59.320Z,102699
2018-01-12T09:48:27.525Z,102713
2018-01-12T09:50:56.485Z,102717
2018-01-12T09:53:24.705Z,102724
2018-01-12T09:55:52.876Z,102721
2018-01-12T09:58:21.073Z,102726
2018-01-12T10:01:02.936Z,102723
2018-01-12T10:03:31.885Z,102728
2018-01-12T10:06:00.103Z,102726
2018-01-12T10:08:28.326Z,102731
2018-01-12T10:10:56.538Z,102728
2018-01-12T10:13:24.761Z,102723
2018-01-12T10:15:52.991Z,102733
2018-01-12T10:18:35.702Z,102732
2018-01-12T10:21:19.312Z,102729
2018-01-12T10:23:47.511Z,102741
2018-01-12T10:26:15.733Z,102745
2018-01-12T10:29:01.600Z,102731
2018-01-12T10:34:44.609Z,102740
2018-01-12T10:37:13.551Z,102752
2018-01-12T10:39:59.373Z,102741
2018-01-12T10:42:27.642Z,102737
2018-01-12T10:44:55.948Z,102737
2018-01-12T10:47:27.994Z,102749
2018-01-12T10:50:17.826Z,102755
2018-01-12T10:52:50.890Z,102759
2018-01-12T10:55:19.130Z,102760
2018-01-12T10:57:47.318Z,102758
2018-01-12T11:00:33.402Z,102763
2018-01-12T11:03:02.435Z,102772
2018-01-12T11:05:30.706Z,102769
2018-01-12T11:07:58.898Z,102767
2018-01-12T11:10:27.149Z,102775
2018-01-12T11:12:55.412Z,102771
2018-01-12T11:15:23.606Z,102778
2018-01-12T11:17:51.837Z,102780
2018-01-12T11:20:20.084Z,102778
2018-01-12T11:22:48.312Z,102776
2018-01-12T11:25:16.514Z,102776
2018-01-12T11:27:44.723Z,102778
2018-01-12T11:30:12.933Z,102776
2018-01-12T11:32:41.887Z,102771
2018-01-12T11:35:10.083Z,102782
2018-01-12T11:37:39.075Z,102781
2018-01-12T11:40:08.038Z,102774
2018-01-12T11:42:36.251Z,102783
2018-01-12T11:45:05.275Z,102775
2018-01-12T11:47:33.467Z,102782
2018-01-12T11:50:01.707Z,102771
2018-01-12T11:52:29.933Z,102782
2018-01-12T11:54:58.151Z,102782
2018-01-12T11:57:26.389Z,102778
2018-01-12T11:59:54.789Z,102775
2018-01-12T12:02:23.766Z,102778
2018-01-12T12:04:51.954Z,102770
2018-01-12T12:07:20.901Z,102762
2018-01-12T12:09:49.127Z,102761
2018-01-12T12:12:17.330Z,102761
2018-01-12T12:14:45.590Z,102755
2018-01-12T12:17:13.818Z,102759
2018-01-12T12:19:42.054Z,102760
2018-01-12T12:22:10.423Z,102755
2018-01-12T12:24:38.991Z,102767
2018-01-12T12:27:07.192Z,102756
2018-01-12T12:29:35.490Z,102760
2018-01-12T12:32:03.727Z,102761
2018-01-12T12:34:32.016Z,102762
2018-01-12T12:37:00.233Z,102766
2018-01-12T12:39:29.233Z,102765
2018-01-12T12:41:58.217Z,102763
2018-01-12T12:44:28.053Z,102760
2018-01-12T12:46:57.073Z,102755
2018-01-12T12:49:25.262Z,102758
2018-01-12T12:51:53.461Z,102761
2018-01-12T12:54:21.659Z,102755
2018-01-12T12:56:50.638Z,102754
2018-01-12T12:59:19.602Z,102750
2018-01-12T13:01:47.792Z,102750
2018-01-12T13:04:17.410Z,102754
2018-01-12T13:06:45.647Z,102745
2018-01-12T13:09:13.881Z,102759
2018-01-12T13:11:42.073Z,102752
2018-01-12T13:14:10.307Z,102751
2018-01-12T13:16:39.407Z,102755
2018-01-12T13:19:08.364Z,102754
2018-01-12T13:21:36.601Z,102751
2018-01-12T13:24:05.029Z,102758
2018-01-12T13:26:33.290Z,102756
2018-01-12T13:29:01.513Z,102756
2018-01-12T13:31:29.726Z,102762
2018-01-12T13:33:57.970Z,102763
2018-01-12T13:36:26.261Z,102763
2018-01-12T13:38:55.447Z,102765
2018-01-12T13:41:23.755Z,102771
2018-01-12T13:43:51.997Z,102781
2018-01-12T13:46:20.196Z,102776
2018-01-12T13:48:48.478Z,102786
2018-01-12T13:51:16.886Z,102785
2018-01-12T13:53:45.117Z,102791
2018-01-12T13:56:13.314Z,102800
2018-01-12T13:58:41.519Z,102800
2018-01-12T14:01:10.508Z,102801
2018-01-12T14:03:39.687Z,102798
2018-01-12T14:06:07.886Z,102799
2018-01-12T14:08:36.909Z,102804
2018-01-12T14:11:05.846Z,102809
2018-01-12T14:13:34.082Z,102805
2018-01-12T14:16:02.320Z,102802
2018-01-12T14:18:31.344Z,102793
2018-01-12T14:21:00.168Z,102795
2018-01-12T14:23:29.813Z,102798
2018-01-12T14:25:58.005Z,102802
2018-01-12T14:28:26.347Z,102805
2018-01-12T14:30:55.437Z,102811
2018-01-12T14:33:24.394Z,102806
2018-01-12T14:35:52.617Z,102811
2018-01-12T14:38:21.628Z,102823
2018-01-12T14:40:49.822Z,102822
2018-01-12T14:43:18.003Z,102826
2018-01-12T14:45:46.194Z,102836
2018-01-12T14:48:14.446Z,102828
2018-01-12T14:50:42.678Z,102834
2018-01-12T14:53:10.917Z,102822
2018-01-12T14:55:39.143Z,102830
2018-01-12T14:58:07.386Z,102836
2018-01-12T15:00:35.616Z,102836
2018-01-12T15:03:03.924Z,102828
2018-01-12T15:05:32.165Z,102824
2018-01-12T15:08:00.365Z,102823
2018-01-12T15:10:28.634Z,102824
2018-01-12T15:12:56.979Z,102824
2018-01-12T15:15:25.249Z,102818
2018-01-12T15:17:53.439Z,102820
2018-01-12T15:20:22.836Z,102825
2018-01-12T15:22:51.148Z,102822
2018-01-12T15:25:19.369Z,102820
2018-01-12T15:27:47.654Z,102816
2018-01-12T15:30:15.866Z,102824
2018-01-12T15:32:44.104Z,102818
2018-01-12T15:35:12.922Z,102824
2018-01-12T15:37:41.450Z,102821
2018-01-12T15:40:10.420Z,102825
2018-01-12T15:42:39.409Z,102819
2018-01-12T15:45:07.619Z,102823
2018-01-12T15:47:35.818Z,102831
2018-01-12T15:50:05.154Z,102830
2018-01-12T15:52:33.375Z,102836
2018-01-12T15:55:01.686Z,102835
2018-01-12T15:57:30.681Z,102837
2018-01-12T15:59:58.902Z,102839
2018-01-12T16:02:27.226Z,102846
2018-01-12T16:04:55.434Z,102846
2018-01-12T16:07:24.418Z,102855
2018-01-12T16:09:52.634Z,102849
2018-01-12T16:12:20.845Z,102857
2018-01-12T16:14:49.043Z,102854
2018-01-12T16:17:17.232Z,102854
2018-01-12T16:19:46.202Z,102852
2018-01-12T16:22:14.420Z,102851
2018-01-12T16:24:42.660Z,102856
2018-01-12T16:27:11.649Z,102859
2018-01-12T16:29:40.609Z,102858
2018-01-12T16:32:08.902Z,102865
2018-01-12T16:34:37.166Z,102867
2018-01-12T16:37:05.396Z,102872
2018-01-12T16:39:33.636Z,102873
2018-01-12T16:42:01.833Z,102864
2018-01-12T16:44:30.798Z,102872
2018-01-12T16:46:59.049Z,102875
2018-01-12T16:49:27.278Z,102879
2018-01-12T16:51:55.545Z,102871
2018-01-12T16:54:24.517Z,102879
2018-01-12T16:56:52.794Z,102883
2018-01-12T16:59:21.028Z,102879
2018-01-12T17:01:49.246Z,102883
2018-01-12T17:04:18.273Z,102882
2018-01-12T17:06:46.478Z,102880
2018-01-12T17:09:14.719Z,102880
2018-01-12T17:11:43.000Z,102882
2018-01-12T17:14:11.215Z,102881
2018-01-12T17:16:39.511Z,102885
2018-01-12T17:19:08.517Z,102896
2018-01-12T17:21:36.749Z,102890
2018-01-12T17:24:04.953Z,102887
2018-01-12T17:26:33.979Z,102882
2018-01-12T17:29:03.000Z,102885
2018-01-12T17:31:31.268Z,102895
2018-01-12T17:33:59.562Z,102898
2018-01-12T17:36:27.790Z,102891
2018-01-12T17:38:56.076Z,102896
2018-01-12T17:41:24.278Z,102895
2018-01-12T17:43:52.485Z,102898
2018-01-12T17:46:21.588Z,102906
2018-01-12T17:48:50.575Z,102898
2018-01-12T17:51:19.598Z,102899
2018-01-12T17:53:48.799Z,102908
2018-01-12T17:56:17.117Z,102906
2018-01-12T17:58:45.343Z,102908
2018-01-12T18:01:13.612Z,102903
2018-01-12T18:03:41.850Z,102903
2018-01-12T18:06:10.159Z,102913
2018-01-12T18:08:38.374Z,102907
2018-01-12T18:11:06.575Z,102909
2018-01-12T18:13:34.851Z,102911
2018-01-12T18:16:03.855Z,102911
2018-01-12T18:18:32.050Z,102918
2018-01-12T18:21:00.233Z,102913
2018-01-12T18:23:28.546Z,102912
2018-01-12T18:25:56.774Z,102908
2018-01-12T18:28:24.983Z,102914
2018-01-12T18:30:53.183Z,102906
2018-01-12T18:33:21.383Z,102916
2018-01-12T18:35:50.358Z,102910
2018-01-12T18:38:18.580Z,102907
2018-01-12T18:40:46.787Z,102918
2018-01-12T18:43:15.151Z,102914
2018-01-12T18:45:43.350Z,102920
2018-01-12T18:48:11.701Z,102930
2018-01-12T18:50:39.977Z,102927
2018-01-12T18:53:08.280Z,102925
2018-01-12T18:55:36.487Z,102922
2018-01-12T18:58:04.771Z,102919
2018-01-12T19:00:32.973Z,102922
2018-01-12T19:03:01.146Z,102923
2018-01-12T19:05:29.442Z,102930
2018-01-12T19:07:57.770Z,102931
2018-01-12T19:10:26.085Z,102929
2018-01-12T19:19:08.549Z,102917
2018-01-12T19:21:36.754Z,102916
2018-01-12T19:24:05.779Z,102917
2018-01-12T19:26:34.012Z,102907
2018-01-12T19:29:02.277Z,102921
2018-01-12T19:31:30.583Z,102916
2018-01-12T19:33:59.575Z,102920
2018-01-12T19:36:27.909Z,102914
2018-01-12T19:38:56.184Z,102920
2018-01-12T19:41:24.425Z,102921
2018-01-12T19:43:52.646Z,102924
2018-01-12T19:46:20.844Z,102931
2018-01-12T19:48:49.039Z,102932
2018-01-12T19:51:17.283Z,102924
2018-01-12T19:53:45.542Z,102930
2018-01-12T19:56:13.798Z,102931
2018-01-12T19:58:42.157Z,102926
2018-01-12T20:01:10.455Z,102932
2018-01-12T20:03:38.765Z,102933
2018-01-12T20:06:08.082Z,102929
2018-01-12T20:08:36.476Z,102931
2018-01-12T20:11:05.566Z,102933
2018-01-12T20:13:33.837Z,102934
2018-01-12T20:16:02.072Z,102927
2018-01-12T20:18:30.329Z,102929
2018-01-12T20:20:58.569Z,102927
2018-01-12T20:23:26.798Z,102927
2018-01-12T20:25:55.108Z,102927
2018-01-12T20:28:23.330Z,102924
2018-01-12T20:30:51.574Z,102944
2018-01-12T20:33:19.788Z,102930
2018-01-12T20:35:48.023Z,102932
2018-01-12T20:38:16.343Z,102934
2018-01-12T20:40:44.615Z,102932
2018-01-12T20:43:12.832Z,102931
2018-01-12T20:45:41.066Z,102939
2018-01-12T20:48:09.268Z,102942
2018-01-12T20:50:38.253Z,102935
2018-01-12T20:53:07.258Z,102935
2018-01-12T20:55:36.210Z,102942
2018-01-12T20:58:04.425Z,102933
2018-01-12T21:00:32.655Z,102941
2018-01-12T21:03:01.043Z,102940
2018-01-12T21:05:29.351Z,102941
2018-01-12T21:07:58.340Z,102947
2018-01-12T21:10:27.345Z,102935
2018-01-12T21:12:55.583Z,102939
2018-01-12T21:15:23.910Z,102947
2018-01-12T21:17:52.215Z,102939
2018-01-12T21:20:20.470Z,102946
2018-01-12T21:22:48.992Z,102941
2018-01-12T21:25:17.343Z,102944
2018-01-12T21:27:45.606Z,102945
2018-01-12T21:30:13.916Z,102944
2018-01-12T21:32:42.168Z,102946
2018-01-12T21:35:10.442Z,102943
2018-01-12T21:37:38.678Z,102948
2018-01-12T21:40:06.944Z,102942
2018-01-12T21:42:35.935Z,102942
2018-01-12T21:45:04.967Z,102943
2018-01-12T21:47:33.396Z,102938
2018-01-12T21:50:02.457Z,102933
2018-01-12T21:52:30.785Z,102939
2018-01-12T21:54:59.080Z,102944
2018-01-12T21:57:27.303Z,102933
2018-01-12T21:59:55.572Z,102938
2018-01-12T22:02:23.844Z,102933
2018-01-12T22:04:52.093Z,102940
2018-01-12T22:07:20.317Z,102937
2018-01-12T22:09:49.253Z,102933
2018-01-12T22:12:17.626Z,102936
2018-01-12T22:14:45.832Z,102936
2018-01-12T22:17:14.077Z,102946
2018-01-12T22:19:42.281Z,102948
2018-01-12T22:22:10.557Z,102938
2018-01-12T22:24:38.780Z,102945
2018-01-12T22:27:07.073Z,102949
2018-01-12T22:29:35.263Z,102941
2018-01-12T22:32:03.508Z,102943
2018-01-12T22:34:31.753Z,102945
2018-01-12T22:37:00.886Z,102947
2018-01-12T22:42:09.791Z,102952
2018-01-12T22:44:38.772Z,102949
2018-01-12T22:47:07.009Z,102945
2018-01-12T22:49:35.264Z,102944
2018-01-12T22:52:03.488Z,102935
2018-01-12T22:54:31.732Z,102945
2018-01-12T22:56:59.947Z,102946
2018-01-12T22:59:29.046Z,102945
2018-01-12T23:01:58.027Z,102940
2018-01-12T23:04:26.277Z,102951
2018-01-12T23:06:55.217Z,102946
2018-01-12T23:09:23.404Z,102940
2018-01-12T23:11:51.623Z,102939
2018-01-12T23:14:20.581Z,102943
2018-01-12T23:16:48.840Z,102951
2018-01-12T23:19:17.822Z,102943
2018-01-12T23:21:46.138Z,102944
2018-01-12T23:24:14.321Z,102938
2018-01-12T23:26:42.569Z,102945
2018-01-12T23:29:10.817Z,102943
2018-01-12T23:31:39.022Z,102945
2018-01-12T23:34:07.314Z,102933
2018-01-12T23:36:35.501Z,102941
2018-01-12T23:39:03.685Z,102943
2018-01-12T23:41:31.940Z,102942
2018-01-12T23:44:01.017Z,102942
2018-01-12T23:46:29.221Z,102941
2018-01-12T23:48:57.428Z,102944
2018-01-12T23:51:26.382Z,102941
2018-01-12T23:53:54.579Z,102946
2018-01-12T23:56:23.574Z,102938
2018-01-12T23:58:51.878Z,102946
